sensor_id;sensor_type;location;lat;lon;timestamp;temperature;humidity
9973;DHT22;5027;53.560;10.062;2022-09-06T00:00:06;23.30;99.90
9973;DHT22;5027;53.560;10.062;2022-09-06T00:02:37;23.20;99.20
9973;DHT22;5027;53.560;10.062;2022-09-06T00:05:06;23.20;97.70
9973;DHT22;5027;53.560;10.062;2022-09-06T00:07:33;23.20;97.50
9973;DHT22;5027;53.560;10.062;2022-09-06T00:10:00;23.30;99.80
9973;DHT22;5027;53.560;10.062;2022-09-06T00:12:27;23.30;99.90
9973;DHT22;5027;53.560;10.062;2022-09-06T00:14:54;23.30;97.90
9973;DHT22;5027;53.560;10.062;2022-09-06T00:17:20;23.30;98.60
9973;DHT22;5027;53.560;10.062;2022-09-06T00:19:47;23.30;98.20
9973;DHT22;5027;53.560;10.062;2022-09-06T00:22:14;23.00;95.90
9973;DHT22;5027;53.560;10.062;2022-09-06T00:24:41;23.00;95.40
9973;DHT22;5027;53.560;10.062;2022-09-06T00:27:08;23.00;96.90
9973;DHT22;5027;53.560;10.062;2022-09-06T00:29:35;22.90;94.60
9973;DHT22;5027;53.560;10.062;2022-09-06T00:32:02;23.00;96.30
9973;DHT22;5027;53.560;10.062;2022-09-06T00:34:28;22.90;94.60
9973;DHT22;5027;53.560;10.062;2022-09-06T00:36:55;23.00;97.20
9973;DHT22;5027;53.560;10.062;2022-09-06T00:39:22;22.80;94.90
9973;DHT22;5027;53.560;10.062;2022-09-06T00:41:48;22.90;95.40
9973;DHT22;5027;53.560;10.062;2022-09-06T00:44:15;22.90;95.80
9973;DHT22;5027;53.560;10.062;2022-09-06T00:46:45;23.00;99.10
9973;DHT22;5027;53.560;10.062;2022-09-06T00:49:23;22.90;94.70
9973;DHT22;5027;53.560;10.062;2022-09-06T00:51:53;22.80;94.60
9973;DHT22;5027;53.560;10.062;2022-09-06T00:54:21;22.80;95.60
9973;DHT22;5027;53.560;10.062;2022-09-06T00:56:49;23.00;98.00
9973;DHT22;5027;53.560;10.062;2022-09-06T00:59:17;23.10;96.80
9973;DHT22;5027;53.560;10.062;2022-09-06T01:01:43;22.90;94.70
9973;DHT22;5027;53.560;10.062;2022-09-06T01:04:10;22.80;95.00
9973;DHT22;5027;53.560;10.062;2022-09-06T01:07:02;22.80;94.80
9973;DHT22;5027;53.560;10.062;2022-09-06T01:18:19;22.70;94.20
9973;DHT22;5027;53.560;10.062;2022-09-06T01:24:11;22.90;97.10
9973;DHT22;5027;53.560;10.062;2022-09-06T01:27:11;23.00;96.50
9973;DHT22;5027;53.560;10.062;2022-09-06T01:29:51;23.00;95.20
9973;DHT22;5027;53.560;10.062;2022-09-06T01:32:34;22.90;95.00
9973;DHT22;5027;53.560;10.062;2022-09-06T01:35:12;22.90;97.10
9973;DHT22;5027;53.560;10.062;2022-09-06T01:37:41;22.80;93.90
9973;DHT22;5027;53.560;10.062;2022-09-06T01:40:07;22.80;94.20
9973;DHT22;5027;53.560;10.062;2022-09-06T01:42:35;22.80;94.10
9973;DHT22;5027;53.560;10.062;2022-09-06T01:45:10;22.80;93.70
9973;DHT22;5027;53.560;10.062;2022-09-06T01:50:53;22.90;94.00
9973;DHT22;5027;53.560;10.062;2022-09-06T01:56:41;22.90;93.70
9973;DHT22;5027;53.560;10.062;2022-09-06T02:02:12;22.80;95.80
9973;DHT22;5027;53.560;10.062;2022-09-06T02:04:58;22.80;93.70
9973;DHT22;5027;53.560;10.062;2022-09-06T02:07:29;22.70;93.60
9973;DHT22;5027;53.560;10.062;2022-09-06T02:10:21;22.70;97.90
9973;DHT22;5027;53.560;10.062;2022-09-06T02:12:53;22.80;94.30
9973;DHT22;5027;53.560;10.062;2022-09-06T02:15:29;22.60;93.70
9973;DHT22;5027;53.560;10.062;2022-09-06T02:18:01;22.80;97.40
9973;DHT22;5027;53.560;10.062;2022-09-06T02:20:32;22.80;94.70
9973;DHT22;5027;53.560;10.062;2022-09-06T02:23:03;22.90;95.50
9973;DHT22;5027;53.560;10.062;2022-09-06T02:25:36;22.80;93.60
9973;DHT22;5027;53.560;10.062;2022-09-06T02:28:06;22.70;93.80
9973;DHT22;5027;53.560;10.062;2022-09-06T02:30:42;22.60;93.30
9973;DHT22;5027;53.560;10.062;2022-09-06T02:33:21;22.50;93.20
9973;DHT22;5027;53.560;10.062;2022-09-06T02:35:51;22.40;93.10
9973;DHT22;5027;53.560;10.062;2022-09-06T02:38:21;22.40;93.30
9973;DHT22;5027;53.560;10.062;2022-09-06T02:40:51;22.40;93.20
9973;DHT22;5027;53.560;10.062;2022-09-06T02:43:19;22.60;94.60
9973;DHT22;5027;53.560;10.062;2022-09-06T02:45:47;22.80;98.20
9973;DHT22;5027;53.560;10.062;2022-09-06T02:48:14;22.90;96.90
9973;DHT22;5027;53.560;10.062;2022-09-06T02:50:40;23.00;97.10
9973;DHT22;5027;53.560;10.062;2022-09-06T02:53:09;22.90;93.70
9973;DHT22;5027;53.560;10.062;2022-09-06T02:55:37;22.80;94.40
9973;DHT22;5027;53.560;10.062;2022-09-06T02:58:08;22.80;93.30
9973;DHT22;5027;53.560;10.062;2022-09-06T03:00:35;22.60;92.70
9973;DHT22;5027;53.560;10.062;2022-09-06T03:03:03;22.50;92.90
9973;DHT22;5027;53.560;10.062;2022-09-06T03:05:30;22.50;93.20
9973;DHT22;5027;53.560;10.062;2022-09-06T03:07:57;22.50;93.20
9973;DHT22;5027;53.560;10.062;2022-09-06T03:10:24;22.50;92.50
9973;DHT22;5027;53.560;10.062;2022-09-06T03:12:52;22.50;94.80
9973;DHT22;5027;53.560;10.062;2022-09-06T03:15:18;22.50;92.40
9973;DHT22;5027;53.560;10.062;2022-09-06T03:17:45;22.60;97.80
9973;DHT22;5027;53.560;10.062;2022-09-06T03:20:12;22.60;94.30
9973;DHT22;5027;53.560;10.062;2022-09-06T03:22:39;22.70;93.10
9973;DHT22;5027;53.560;10.062;2022-09-06T03:25:08;22.70;93.30
9973;DHT22;5027;53.560;10.062;2022-09-06T03:27:35;22.60;92.40
9973;DHT22;5027;53.560;10.062;2022-09-06T03:30:03;22.50;93.20
9973;DHT22;5027;53.560;10.062;2022-09-06T03:32:30;22.60;93.10
9973;DHT22;5027;53.560;10.062;2022-09-06T03:34:57;22.60;92.40
9973;DHT22;5027;53.560;10.062;2022-09-06T03:37:24;22.70;92.30
9973;DHT22;5027;53.560;10.062;2022-09-06T03:39:51;22.70;93.30
9973;DHT22;5027;53.560;10.062;2022-09-06T03:42:18;22.60;92.00
9973;DHT22;5027;53.560;10.062;2022-09-06T03:44:45;22.50;94.90
9973;DHT22;5027;53.560;10.062;2022-09-06T03:47:12;22.60;94.20
9973;DHT22;5027;53.560;10.062;2022-09-06T03:49:44;22.50;92.00
9973;DHT22;5027;53.560;10.062;2022-09-06T03:52:11;22.50;91.50
9973;DHT22;5027;53.560;10.062;2022-09-06T03:54:37;22.40;91.60
9973;DHT22;5027;53.560;10.062;2022-09-06T03:57:04;22.30;91.10
9973;DHT22;5027;53.560;10.062;2022-09-06T03:59:31;22.30;90.80
9973;DHT22;5027;53.560;10.062;2022-09-06T04:01:58;22.30;94.00
9973;DHT22;5027;53.560;10.062;2022-09-06T04:04:24;22.40;91.50
9973;DHT22;5027;53.560;10.062;2022-09-06T04:06:51;22.30;91.40
9973;DHT22;5027;53.560;10.062;2022-09-06T04:09:18;22.40;92.10
9973;DHT22;5027;53.560;10.062;2022-09-06T04:11:44;22.50;96.00
9973;DHT22;5027;53.560;10.062;2022-09-06T04:14:11;22.70;95.50
9973;DHT22;5027;53.560;10.062;2022-09-06T04:16:38;22.70;91.30
9973;DHT22;5027;53.560;10.062;2022-09-06T04:19:04;22.50;91.00
9973;DHT22;5027;53.560;10.062;2022-09-06T04:21:31;22.40;92.50
9973;DHT22;5027;53.560;10.062;2022-09-06T04:23:58;22.40;91.00
9973;DHT22;5027;53.560;10.062;2022-09-06T04:26:25;22.40;90.60
9973;DHT22;5027;53.560;10.062;2022-09-06T04:28:51;22.40;91.70
9973;DHT22;5027;53.560;10.062;2022-09-06T04:31:18;22.40;90.30
9973;DHT22;5027;53.560;10.062;2022-09-06T04:33:45;22.50;91.70
9973;DHT22;5027;53.560;10.062;2022-09-06T04:36:12;22.50;90.60
9973;DHT22;5027;53.560;10.062;2022-09-06T04:38:41;22.40;90.50
9973;DHT22;5027;53.560;10.062;2022-09-06T04:41:13;22.50;95.10
9973;DHT22;5027;53.560;10.062;2022-09-06T04:43:41;22.50;91.50
9973;DHT22;5027;53.560;10.062;2022-09-06T04:46:18;22.60;95.10
9973;DHT22;5027;53.560;10.062;2022-09-06T04:48:46;22.50;93.20
9973;DHT22;5027;53.560;10.062;2022-09-06T04:51:13;22.70;94.20
9973;DHT22;5027;53.560;10.062;2022-09-06T04:53:40;22.80;96.60
9973;DHT22;5027;53.560;10.062;2022-09-06T04:56:07;22.80;93.20
9973;DHT22;5027;53.560;10.062;2022-09-06T04:58:36;22.80;95.10
9973;DHT22;5027;53.560;10.062;2022-09-06T05:01:03;22.80;95.10
9973;DHT22;5027;53.560;10.062;2022-09-06T05:03:30;22.70;95.80
9973;DHT22;5027;53.560;10.062;2022-09-06T05:06:04;22.80;92.80
9973;DHT22;5027;53.560;10.062;2022-09-06T05:08:31;22.70;95.20
9973;DHT22;5027;53.560;10.062;2022-09-06T05:10:57;22.90;99.10
9973;DHT22;5027;53.560;10.062;2022-09-06T05:13:24;22.90;98.80
9973;DHT22;5027;53.560;10.062;2022-09-06T05:15:50;22.60;91.90
9973;DHT22;5027;53.560;10.062;2022-09-06T05:18:17;22.40;91.50
9973;DHT22;5027;53.560;10.062;2022-09-06T05:20:50;22.40;90.80
9973;DHT22;5027;53.560;10.062;2022-09-06T05:23:18;22.30;90.30
9973;DHT22;5027;53.560;10.062;2022-09-06T05:25:44;22.50;94.40
9973;DHT22;5027;53.560;10.062;2022-09-06T05:28:11;22.70;97.80
9973;DHT22;5027;53.560;10.062;2022-09-06T05:30:38;22.50;93.10
9973;DHT22;5027;53.560;10.062;2022-09-06T05:33:05;22.40;94.80
9973;DHT22;5027;53.560;10.062;2022-09-06T05:35:31;22.60;94.70
9973;DHT22;5027;53.560;10.062;2022-09-06T05:37:58;22.50;91.20
9973;DHT22;5027;53.560;10.062;2022-09-06T05:40:25;22.30;90.60
9973;DHT22;5027;53.560;10.062;2022-09-06T05:42:51;22.30;94.00
9973;DHT22;5027;53.560;10.062;2022-09-06T05:45:18;22.40;92.70
9973;DHT22;5027;53.560;10.062;2022-09-06T05:47:45;22.60;93.90
9973;DHT22;5027;53.560;10.062;2022-09-06T05:50:11;22.50;90.80
9973;DHT22;5027;53.560;10.062;2022-09-06T05:52:38;22.40;93.60
9973;DHT22;5027;53.560;10.062;2022-09-06T05:55:06;22.40;91.20
9973;DHT22;5027;53.560;10.062;2022-09-06T05:57:33;22.40;93.40
9973;DHT22;5027;53.560;10.062;2022-09-06T05:59:59;22.50;97.70
9973;DHT22;5027;53.560;10.062;2022-09-06T06:02:26;22.70;95.90
9973;DHT22;5027;53.560;10.062;2022-09-06T06:04:53;22.70;95.40
9973;DHT22;5027;53.560;10.062;2022-09-06T06:07:20;22.50;91.40
9973;DHT22;5027;53.560;10.062;2022-09-06T06:09:46;22.50;94.90
9973;DHT22;5027;53.560;10.062;2022-09-06T06:12:13;22.50;91.20
9973;DHT22;5027;53.560;10.062;2022-09-06T06:14:39;22.70;96.60
9973;DHT22;5027;53.560;10.062;2022-09-06T06:17:06;22.60;94.90
9973;DHT22;5027;53.560;10.062;2022-09-06T06:19:33;22.50;91.40
9973;DHT22;5027;53.560;10.062;2022-09-06T06:21:59;22.60;95.10
9973;DHT22;5027;53.560;10.062;2022-09-06T06:24:26;22.70;98.40
9973;DHT22;5027;53.560;10.062;2022-09-06T06:26:53;22.80;99.90
9973;DHT22;5027;53.560;10.062;2022-09-06T06:29:20;22.80;97.20
9973;DHT22;5027;53.560;10.062;2022-09-06T06:31:46;22.60;95.30
9973;DHT22;5027;53.560;10.062;2022-09-06T06:34:13;22.50;93.60
9973;DHT22;5027;53.560;10.062;2022-09-06T06:36:40;22.70;98.20
9973;DHT22;5027;53.560;10.062;2022-09-06T06:39:08;22.70;94.50
9973;DHT22;5027;53.560;10.062;2022-09-06T06:41:34;22.40;91.40
9973;DHT22;5027;53.560;10.062;2022-09-06T06:44:03;22.30;91.40
9973;DHT22;5027;53.560;10.062;2022-09-06T06:46:33;22.30;94.60
9973;DHT22;5027;53.560;10.062;2022-09-06T06:49:00;22.60;93.70
9973;DHT22;5027;53.560;10.062;2022-09-06T06:51:29;22.50;94.60
9973;DHT22;5027;53.560;10.062;2022-09-06T06:53:56;22.50;92.50
9973;DHT22;5027;53.560;10.062;2022-09-06T06:56:32;22.50;92.30
9973;DHT22;5027;53.560;10.062;2022-09-06T06:59:01;22.50;97.00
9973;DHT22;5027;53.560;10.062;2022-09-06T07:01:29;22.70;99.00
9973;DHT22;5027;53.560;10.062;2022-09-06T07:03:57;22.60;92.50
9973;DHT22;5027;53.560;10.062;2022-09-06T07:06:25;22.60;93.30
9973;DHT22;5027;53.560;10.062;2022-09-06T07:09:15;22.50;94.60
9973;DHT22;5027;53.560;10.062;2022-09-06T07:11:41;22.50;97.00
9973;DHT22;5027;53.560;10.062;2022-09-06T07:14:08;22.70;97.50
9973;DHT22;5027;53.560;10.062;2022-09-06T07:16:35;22.80;96.60
9973;DHT22;5027;53.560;10.062;2022-09-06T07:19:02;22.70;94.20
9973;DHT22;5027;53.560;10.062;2022-09-06T07:21:29;22.60;94.90
9973;DHT22;5027;53.560;10.062;2022-09-06T07:24:05;22.70;94.70
9973;DHT22;5027;53.560;10.062;2022-09-06T07:26:36;22.60;98.40
9973;DHT22;5027;53.560;10.062;2022-09-06T07:29:05;22.80;97.60
9973;DHT22;5027;53.560;10.062;2022-09-06T07:31:33;22.70;94.30
9973;DHT22;5027;53.560;10.062;2022-09-06T07:34:20;22.60;95.80
9973;DHT22;5027;53.560;10.062;2022-09-06T07:36:47;22.80;99.10
9973;DHT22;5027;53.560;10.062;2022-09-06T07:39:14;22.70;94.40
9973;DHT22;5027;53.560;10.062;2022-09-06T07:41:41;22.70;96.30
9973;DHT22;5027;53.560;10.062;2022-09-06T07:44:08;22.50;93.10
9973;DHT22;5027;53.560;10.062;2022-09-06T07:46:35;22.70;97.70
9973;DHT22;5027;53.560;10.062;2022-09-06T07:49:03;22.70;98.50
9973;DHT22;5027;53.560;10.062;2022-09-06T07:51:30;22.60;95.60
9973;DHT22;5027;53.560;10.062;2022-09-06T07:53:57;22.70;97.60
9973;DHT22;5027;53.560;10.062;2022-09-06T07:56:44;22.70;98.30
9973;DHT22;5027;53.560;10.062;2022-09-06T07:59:10;22.70;97.80
9973;DHT22;5027;53.560;10.062;2022-09-06T08:01:38;22.90;97.80
9973;DHT22;5027;53.560;10.062;2022-09-06T08:04:09;22.80;99.20
9973;DHT22;5027;53.560;10.062;2022-09-06T08:06:41;22.70;95.00
9973;DHT22;5027;53.560;10.062;2022-09-06T08:09:28;22.60;96.20
9973;DHT22;5027;53.560;10.062;2022-09-06T08:11:55;22.70;96.30
9973;DHT22;5027;53.560;10.062;2022-09-06T08:14:21;22.50;93.20
9973;DHT22;5027;53.560;10.062;2022-09-06T08:16:48;22.40;92.50
9973;DHT22;5027;53.560;10.062;2022-09-06T08:19:15;22.40;94.10
9973;DHT22;5027;53.560;10.062;2022-09-06T08:21:43;22.50;97.10
9973;DHT22;5027;53.560;10.062;2022-09-06T08:24:10;22.70;97.50
9973;DHT22;5027;53.560;10.062;2022-09-06T08:26:37;22.70;96.60
9973;DHT22;5027;53.560;10.062;2022-09-06T08:29:07;22.70;94.40
9973;DHT22;5027;53.560;10.062;2022-09-06T08:31:36;22.70;97.20
9973;DHT22;5027;53.560;10.062;2022-09-06T08:34:03;22.60;93.40
9973;DHT22;5027;53.560;10.062;2022-09-06T08:36:30;22.40;92.80
9973;DHT22;5027;53.560;10.062;2022-09-06T08:38:58;22.30;92.30
9973;DHT22;5027;53.560;10.062;2022-09-06T08:41:26;22.30;92.70
9973;DHT22;5027;53.560;10.062;2022-09-06T08:43:54;22.40;94.40
9973;DHT22;5027;53.560;10.062;2022-09-06T08:46:56;22.50;94.30
9973;DHT22;5027;53.560;10.062;2022-09-06T08:49:27;22.70;93.50
9973;DHT22;5027;53.560;10.062;2022-09-06T08:54:55;22.50;96.20
9973;DHT22;5027;53.560;10.062;2022-09-06T08:57:49;22.60;96.30
9973;DHT22;5027;53.560;10.062;2022-09-06T09:00:19;22.60;95.50
9973;DHT22;5027;53.560;10.062;2022-09-06T09:02:49;22.50;93.30
9973;DHT22;5027;53.560;10.062;2022-09-06T09:05:28;22.40;93.20
9973;DHT22;5027;53.560;10.062;2022-09-06T09:10:47;22.40;94.20
9973;DHT22;5027;53.560;10.062;2022-09-06T09:13:26;22.60;97.60
9973;DHT22;5027;53.560;10.062;2022-09-06T09:15:54;22.60;95.50
9973;DHT22;5027;53.560;10.062;2022-09-06T09:18:25;22.60;97.10
9973;DHT22;5027;53.560;10.062;2022-09-06T09:20:52;22.70;97.30
9973;DHT22;5027;53.560;10.062;2022-09-06T09:23:19;22.70;97.00
9973;DHT22;5027;53.560;10.062;2022-09-06T09:25:46;22.60;95.20
9973;DHT22;5027;53.560;10.062;2022-09-06T09:28:18;22.50;93.50
9973;DHT22;5027;53.560;10.062;2022-09-06T09:30:51;22.40;93.80
9973;DHT22;5027;53.560;10.062;2022-09-06T09:33:27;22.40;93.70
9973;DHT22;5027;53.560;10.062;2022-09-06T09:35:57;22.50;94.40
9973;DHT22;5027;53.560;10.062;2022-09-06T09:38:34;22.50;94.90
9973;DHT22;5027;53.560;10.062;2022-09-06T09:41:06;22.50;95.50
9973;DHT22;5027;53.560;10.062;2022-09-06T09:43:40;22.60;97.80
9973;DHT22;5027;53.560;10.062;2022-09-06T09:51:44;22.50;95.00
9973;DHT22;5027;53.560;10.062;2022-09-06T09:54:14;22.60;98.50
9973;DHT22;5027;53.560;10.062;2022-09-06T09:56:56;22.70;97.80
9973;DHT22;5027;53.560;10.062;2022-09-06T09:59:29;22.80;99.90
9973;DHT22;5027;53.560;10.062;2022-09-06T10:02:00;22.80;99.90
9973;DHT22;5027;53.560;10.062;2022-09-06T10:04:35;22.70;96.70
9973;DHT22;5027;53.560;10.062;2022-09-06T10:07:22;22.60;96.90
9973;DHT22;5027;53.560;10.062;2022-09-06T10:12:41;22.70;99.90
9973;DHT22;5027;53.560;10.062;2022-09-06T10:15:10;22.70;97.70
9973;DHT22;5027;53.560;10.062;2022-09-06T10:17:48;22.80;99.60
9973;DHT22;5027;53.560;10.062;2022-09-06T10:20:15;22.70;98.30
9973;DHT22;5027;53.560;10.062;2022-09-06T10:23:11;22.70;98.50
9973;DHT22;5027;53.560;10.062;2022-09-06T10:25:45;22.80;99.90
9973;DHT22;5027;53.560;10.062;2022-09-06T10:28:34;22.60;95.70
9973;DHT22;5027;53.560;10.062;2022-09-06T10:34:15;22.80;99.90
9973;DHT22;5027;53.560;10.062;2022-09-06T10:39:39;22.80;97.40
9973;DHT22;5027;53.560;10.062;2022-09-06T10:47:54;22.70;99.00
9973;DHT22;5027;53.560;10.062;2022-09-06T10:53:25;22.70;99.80
9973;DHT22;5027;53.560;10.062;2022-09-06T10:56:12;22.80;99.90
9973;DHT22;5027;53.560;10.062;2022-09-06T10:59:03;22.70;96.60
9973;DHT22;5027;53.560;10.062;2022-09-06T11:04:50;22.60;96.60
9973;DHT22;5027;53.560;10.062;2022-09-06T11:07:41;22.60;97.40
9973;DHT22;5027;53.560;10.062;2022-09-06T11:10:31;22.60;98.90
9973;DHT22;5027;53.560;10.062;2022-09-06T11:13:13;22.50;96.70
9973;DHT22;5027;53.560;10.062;2022-09-06T11:18:37;22.50;95.50
9973;DHT22;5027;53.560;10.062;2022-09-06T11:21:33;22.50;96.50
9973;DHT22;5027;53.560;10.062;2022-09-06T11:24:29;22.60;97.70
9973;DHT22;5027;53.560;10.062;2022-09-06T11:27:19;22.60;97.20
9973;DHT22;5027;53.560;10.062;2022-09-06T11:29:49;22.60;95.60
9973;DHT22;5027;53.560;10.062;2022-09-06T11:32:33;22.70;98.90
9973;DHT22;5027;53.560;10.062;2022-09-06T11:35:06;22.70;96.60
9973;DHT22;5027;53.560;10.062;2022-09-06T11:37:37;22.70;99.50
9973;DHT22;5027;53.560;10.062;2022-09-06T11:40:16;22.70;97.30
9973;DHT22;5027;53.560;10.062;2022-09-06T11:53:20;22.80;99.90
9973;DHT22;5027;53.560;10.062;2022-09-06T11:55:50;22.80;98.30
9973;DHT22;5027;53.560;10.062;2022-09-06T12:00:44;22.60;98.20
9973;DHT22;5027;53.560;10.062;2022-09-06T12:06:41;22.80;99.90
9973;DHT22;5027;53.560;10.062;2022-09-06T12:09:30;22.80;99.90
9973;DHT22;5027;53.560;10.062;2022-09-06T12:11:58;22.80;99.90
9973;DHT22;5027;53.560;10.062;2022-09-06T12:14:34;22.70;97.20
9973;DHT22;5027;53.560;10.062;2022-09-06T12:25:18;22.80;99.90
9973;DHT22;5027;53.560;10.062;2022-09-06T12:27:56;22.80;99.90
9973;DHT22;5027;53.560;10.062;2022-09-06T12:30:33;22.80;99.90
9973;DHT22;5027;53.560;10.062;2022-09-06T12:33:12;22.80;99.90
9973;DHT22;5027;53.560;10.062;2022-09-06T12:35:40;22.80;99.90
9973;DHT22;5027;53.560;10.062;2022-09-06T12:38:24;22.80;99.90
9973;DHT22;5027;53.560;10.062;2022-09-06T12:40:51;22.70;99.50
9973;DHT22;5027;53.560;10.062;2022-09-06T12:43:23;22.70;99.90
9973;DHT22;5027;53.560;10.062;2022-09-06T12:45:51;22.70;98.30
9973;DHT22;5027;53.560;10.062;2022-09-06T12:48:25;22.70;97.30
9973;DHT22;5027;53.560;10.062;2022-09-06T12:51:10;22.70;98.90
9973;DHT22;5027;53.560;10.062;2022-09-06T12:54:16;22.70;99.90
9973;DHT22;5027;53.560;10.062;2022-09-06T12:56:44;22.80;99.90
9973;DHT22;5027;53.560;10.062;2022-09-06T12:59:19;22.80;99.90
9973;DHT22;5027;53.560;10.062;2022-09-06T13:01:58;22.80;99.90
9973;DHT22;5027;53.560;10.062;2022-09-06T13:04:46;22.80;99.90
9973;DHT22;5027;53.560;10.062;2022-09-06T13:07:16;22.80;99.90
9973;DHT22;5027;53.560;10.062;2022-09-06T13:09:45;22.80;99.90
9973;DHT22;5027;53.560;10.062;2022-09-06T13:12:29;22.80;99.90
9973;DHT22;5027;53.560;10.062;2022-09-06T13:15:03;22.80;99.90
9973;DHT22;5027;53.560;10.062;2022-09-06T13:17:30;22.70;99.70
9973;DHT22;5027;53.560;10.062;2022-09-06T13:19:57;22.70;99.90
9973;DHT22;5027;53.560;10.062;2022-09-06T13:22:40;22.80;99.90
9973;DHT22;5027;53.560;10.062;2022-09-06T13:25:27;22.80;99.90
9973;DHT22;5027;53.560;10.062;2022-09-06T13:27:55;22.80;99.90
9973;DHT22;5027;53.560;10.062;2022-09-06T13:30:38;22.80;99.90
9973;DHT22;5027;53.560;10.062;2022-09-06T13:33:39;22.70;99.50
9973;DHT22;5027;53.560;10.062;2022-09-06T13:36:52;22.80;99.90
9973;DHT22;5027;53.560;10.062;2022-09-06T13:39:40;22.70;99.90
9973;DHT22;5027;53.560;10.062;2022-09-06T13:42:32;22.60;98.40
9973;DHT22;5027;53.560;10.062;2022-09-06T13:45:26;22.70;99.90
9973;DHT22;5027;53.560;10.062;2022-09-06T13:47:53;22.70;98.20
9973;DHT22;5027;53.560;10.062;2022-09-06T13:50:41;22.70;98.40
9973;DHT22;5027;53.560;10.062;2022-09-06T13:53:07;22.60;98.10
9973;DHT22;5027;53.560;10.062;2022-09-06T13:55:34;22.70;99.90
9973;DHT22;5027;53.560;10.062;2022-09-06T13:58:00;22.70;99.90
9973;DHT22;5027;53.560;10.062;2022-09-06T14:00:27;22.80;99.90
9973;DHT22;5027;53.560;10.062;2022-09-06T14:02:54;22.80;99.90
9973;DHT22;5027;53.560;10.062;2022-09-06T14:05:21;22.80;99.90
9973;DHT22;5027;53.560;10.062;2022-09-06T14:07:48;22.80;99.90
9973;DHT22;5027;53.560;10.062;2022-09-06T14:10:17;22.80;99.90
9973;DHT22;5027;53.560;10.062;2022-09-06T14:12:52;22.80;99.90
9973;DHT22;5027;53.560;10.062;2022-09-06T14:15:19;22.80;99.90
9973;DHT22;5027;53.560;10.062;2022-09-06T14:17:48;22.70;99.90
9973;DHT22;5027;53.560;10.062;2022-09-06T14:20:15;22.70;99.90
9973;DHT22;5027;53.560;10.062;2022-09-06T14:22:45;22.70;99.90
9973;DHT22;5027;53.560;10.062;2022-09-06T14:25:12;22.80;99.90
9973;DHT22;5027;53.560;10.062;2022-09-06T14:27:45;22.80;99.90
9973;DHT22;5027;53.560;10.062;2022-09-06T14:30:17;22.80;99.90
9973;DHT22;5027;53.560;10.062;2022-09-06T14:32:46;22.70;99.90
9973;DHT22;5027;53.560;10.062;2022-09-06T14:35:33;22.80;99.90
9973;DHT22;5027;53.560;10.062;2022-09-06T14:38:02;22.80;99.90
9973;DHT22;5027;53.560;10.062;2022-09-06T14:40:40;22.80;99.90
9973;DHT22;5027;53.560;10.062;2022-09-06T14:43:10;22.80;99.90
9973;DHT22;5027;53.560;10.062;2022-09-06T14:45:37;22.80;99.90
9973;DHT22;5027;53.560;10.062;2022-09-06T14:48:03;22.80;99.90
9973;DHT22;5027;53.560;10.062;2022-09-06T14:50:31;22.70;99.90
9973;DHT22;5027;53.560;10.062;2022-09-06T14:52:57;22.80;99.90
9973;DHT22;5027;53.560;10.062;2022-09-06T14:55:24;22.70;99.90
9973;DHT22;5027;53.560;10.062;2022-09-06T14:57:53;22.70;99.50
9973;DHT22;5027;53.560;10.062;2022-09-06T15:00:21;22.70;99.90
9973;DHT22;5027;53.560;10.062;2022-09-06T15:02:55;22.70;99.90
9973;DHT22;5027;53.560;10.062;2022-09-06T15:05:21;22.70;99.90
9973;DHT22;5027;53.560;10.062;2022-09-06T15:07:48;22.80;99.90
9973;DHT22;5027;53.560;10.062;2022-09-06T15:10:17;22.80;99.90
9973;DHT22;5027;53.560;10.062;2022-09-06T15:12:44;22.70;99.90
9973;DHT22;5027;53.560;10.062;2022-09-06T15:15:10;22.80;99.90
9973;DHT22;5027;53.560;10.062;2022-09-06T15:17:37;22.70;99.90
9973;DHT22;5027;53.560;10.062;2022-09-06T15:20:04;22.70;99.90
9973;DHT22;5027;53.560;10.062;2022-09-06T15:22:31;22.70;99.90
9973;DHT22;5027;53.560;10.062;2022-09-06T15:24:58;22.80;99.90
9973;DHT22;5027;53.560;10.062;2022-09-06T15:27:28;22.80;99.90
9973;DHT22;5027;53.560;10.062;2022-09-06T15:29:58;22.80;99.90
9973;DHT22;5027;53.560;10.062;2022-09-06T15:32:25;22.70;99.90
9973;DHT22;5027;53.560;10.062;2022-09-06T15:34:51;22.70;99.90
9973;DHT22;5027;53.560;10.062;2022-09-06T15:37:18;22.70;99.90
9973;DHT22;5027;53.560;10.062;2022-09-06T15:39:47;22.70;99.90
9973;DHT22;5027;53.560;10.062;2022-09-06T15:42:14;22.70;99.90
9973;DHT22;5027;53.560;10.062;2022-09-06T15:44:41;22.70;99.90
9973;DHT22;5027;53.560;10.062;2022-09-06T15:47:07;22.80;99.90
9973;DHT22;5027;53.560;10.062;2022-09-06T15:49:34;22.80;99.90
9973;DHT22;5027;53.560;10.062;2022-09-06T15:52:02;22.70;99.90
9973;DHT22;5027;53.560;10.062;2022-09-06T15:54:31;22.80;99.90
9973;DHT22;5027;53.560;10.062;2022-09-06T15:57:16;22.70;99.90
9973;DHT22;5027;53.560;10.062;2022-09-06T15:59:43;22.70;99.90
9973;DHT22;5027;53.560;10.062;2022-09-06T16:02:11;22.80;99.90
9973;DHT22;5027;53.560;10.062;2022-09-06T16:04:38;22.80;99.90
9973;DHT22;5027;53.560;10.062;2022-09-06T16:07:05;22.70;99.90
9973;DHT22;5027;53.560;10.062;2022-09-06T16:09:32;22.80;99.90
9973;DHT22;5027;53.560;10.062;2022-09-06T16:11:59;22.80;99.90
9973;DHT22;5027;53.560;10.062;2022-09-06T16:14:25;22.80;99.90
9973;DHT22;5027;53.560;10.062;2022-09-06T16:16:54;22.70;99.90
9973;DHT22;5027;53.560;10.062;2022-09-06T16:19:22;22.70;99.90
9973;DHT22;5027;53.560;10.062;2022-09-06T16:21:49;22.70;99.90
9973;DHT22;5027;53.560;10.062;2022-09-06T16:24:16;22.70;99.90
9973;DHT22;5027;53.560;10.062;2022-09-06T16:26:44;22.80;99.90
9973;DHT22;5027;53.560;10.062;2022-09-06T16:29:15;22.70;99.90
9973;DHT22;5027;53.560;10.062;2022-09-06T16:31:43;22.80;99.90
9973;DHT22;5027;53.560;10.062;2022-09-06T16:34:11;22.80;99.90
9973;DHT22;5027;53.560;10.062;2022-09-06T16:36:38;22.70;99.90
9973;DHT22;5027;53.560;10.062;2022-09-06T16:39:05;22.70;99.90
9973;DHT22;5027;53.560;10.062;2022-09-06T16:41:41;22.70;99.90
9973;DHT22;5027;53.560;10.062;2022-09-06T16:44:09;22.70;99.90
9973;DHT22;5027;53.560;10.062;2022-09-06T16:46:39;22.80;99.90
9973;DHT22;5027;53.560;10.062;2022-09-06T16:49:07;22.70;99.90
9973;DHT22;5027;53.560;10.062;2022-09-06T16:51:34;22.70;99.90
9973;DHT22;5027;53.560;10.062;2022-09-06T16:54:01;22.70;99.90
9973;DHT22;5027;53.560;10.062;2022-09-06T16:56:31;22.70;99.90
9973;DHT22;5027;53.560;10.062;2022-09-06T16:59:03;22.70;99.90
9973;DHT22;5027;53.560;10.062;2022-09-06T17:01:30;22.70;99.90
9973;DHT22;5027;53.560;10.062;2022-09-06T17:03:59;22.70;99.90
9973;DHT22;5027;53.560;10.062;2022-09-06T17:06:27;22.70;99.90
9973;DHT22;5027;53.560;10.062;2022-09-06T17:08:56;22.60;99.30
9973;DHT22;5027;53.560;10.062;2022-09-06T17:11:24;22.60;99.70
9973;DHT22;5027;53.560;10.062;2022-09-06T17:13:53;22.70;99.90
9973;DHT22;5027;53.560;10.062;2022-09-06T17:16:21;22.60;99.10
9973;DHT22;5027;53.560;10.062;2022-09-06T17:19:06;22.60;99.10
9973;DHT22;5027;53.560;10.062;2022-09-06T17:21:35;22.70;99.90
9973;DHT22;5027;53.560;10.062;2022-09-06T17:24:02;22.60;98.20
9973;DHT22;5027;53.560;10.062;2022-09-06T17:26:32;22.60;98.30
9973;DHT22;5027;53.560;10.062;2022-09-06T17:28:59;22.70;99.90